sensor_id;sensor_type;location;lat;lon;timestamp;temperature;humidity
56044;DHT22;41912;51.022;3.664;2022-09-09T00:04:41;18.00;99.50
56044;DHT22;41912;51.022;3.664;2022-09-09T00:21:25;17.90;99.60
56044;DHT22;41912;51.022;3.664;2022-09-09T00:23:54;17.80;99.60
56044;DHT22;41912;51.022;3.664;2022-09-09T00:31:28;17.80;99.40
56044;DHT22;41912;51.022;3.664;2022-09-09T00:33:55;17.80;99.40
56044;DHT22;41912;51.022;3.664;2022-09-09T00:36:25;17.80;99.50
56044;DHT22;41912;51.022;3.664;2022-09-09T00:38:58;17.80;99.40
56044;DHT22;41912;51.022;3.664;2022-09-09T00:47:10;17.70;99.50
56044;DHT22;41912;51.022;3.664;2022-09-09T00:57:35;17.60;99.50
56044;DHT22;41912;51.022;3.664;2022-09-09T01:03:29;17.60;99.70
56044;DHT22;41912;51.022;3.664;2022-09-09T01:11:09;17.60;99.80
56044;DHT22;41912;51.022;3.664;2022-09-09T01:13:36;17.60;99.80
56044;DHT22;41912;51.022;3.664;2022-09-09T01:16:04;17.60;99.70
56044;DHT22;41912;51.022;3.664;2022-09-09T01:18:40;17.60;99.70
56044;DHT22;41912;51.022;3.664;2022-09-09T01:23:41;17.60;99.70
56044;DHT22;41912;51.022;3.664;2022-09-09T01:28:43;17.50;99.70
56044;DHT22;41912;51.022;3.664;2022-09-09T01:31:14;17.60;99.70
56044;DHT22;41912;51.022;3.664;2022-09-09T01:33:40;17.50;99.70
56044;DHT22;41912;51.022;3.664;2022-09-09T01:36:29;17.50;99.60
56044;DHT22;41912;51.022;3.664;2022-09-09T01:38:57;17.50;99.60
56044;DHT22;41912;51.022;3.664;2022-09-09T01:41:23;17.50;99.60
56044;DHT22;41912;51.022;3.664;2022-09-09T01:43:49;17.50;99.60
56044;DHT22;41912;51.022;3.664;2022-09-09T01:46:16;17.40;99.60
56044;DHT22;41912;51.022;3.664;2022-09-09T01:48:43;17.40;99.70
56044;DHT22;41912;51.022;3.664;2022-09-09T01:51:09;17.30;99.70
56044;DHT22;41912;51.022;3.664;2022-09-09T01:53:36;17.30;99.80
56044;DHT22;41912;51.022;3.664;2022-09-09T02:04:17;17.30;99.70
56044;DHT22;41912;51.022;3.664;2022-09-09T02:06:46;17.30;99.80
56044;DHT22;41912;51.022;3.664;2022-09-09T02:09:14;17.30;99.80
56044;DHT22;41912;51.022;3.664;2022-09-09T02:11:44;17.30;99.90
56044;DHT22;41912;51.022;3.664;2022-09-09T02:14:16;17.30;99.90
56044;DHT22;41912;51.022;3.664;2022-09-09T02:16:55;17.30;99.90
56044;DHT22;41912;51.022;3.664;2022-09-09T02:19:37;17.30;99.90
56044;DHT22;41912;51.022;3.664;2022-09-09T02:22:04;17.30;99.90
56044;DHT22;41912;51.022;3.664;2022-09-09T02:24:35;17.20;99.90
56044;DHT22;41912;51.022;3.664;2022-09-09T02:27:03;17.30;99.90
56044;DHT22;41912;51.022;3.664;2022-09-09T02:29:34;17.30;99.90
56044;DHT22;41912;51.022;3.664;2022-09-09T02:32:04;17.30;99.90
56044;DHT22;41912;51.022;3.664;2022-09-09T02:34:34;17.30;99.90
56044;DHT22;41912;51.022;3.664;2022-09-09T02:37:03;17.30;99.90
56044;DHT22;41912;51.022;3.664;2022-09-09T02:39:28;17.30;99.90
56044;DHT22;41912;51.022;3.664;2022-09-09T02:41:54;17.30;99.90
56044;DHT22;41912;51.022;3.664;2022-09-09T02:44:20;17.30;99.90
56044;DHT22;41912;51.022;3.664;2022-09-09T02:55:46;17.30;99.90
56044;DHT22;41912;51.022;3.664;2022-09-09T02:58:13;17.30;99.90
56044;DHT22;41912;51.022;3.664;2022-09-09T03:00:43;17.30;99.90
56044;DHT22;41912;51.022;3.664;2022-09-09T03:03:09;17.30;99.90
56044;DHT22;41912;51.022;3.664;2022-09-09T03:05:35;17.30;99.90
56044;DHT22;41912;51.022;3.664;2022-09-09T03:08:02;17.30;99.90
56044;DHT22;41912;51.022;3.664;2022-09-09T03:10:28;17.30;99.90
56044;DHT22;41912;51.022;3.664;2022-09-09T03:12:54;17.30;99.90
56044;DHT22;41912;51.022;3.664;2022-09-09T03:15:20;17.30;99.90
56044;DHT22;41912;51.022;3.664;2022-09-09T03:17:46;17.30;99.90
56044;DHT22;41912;51.022;3.664;2022-09-09T03:20:13;17.30;99.90
56044;DHT22;41912;51.022;3.664;2022-09-09T03:22:38;17.30;99.90
56044;DHT22;41912;51.022;3.664;2022-09-09T03:25:04;17.30;99.90
56044;DHT22;41912;51.022;3.664;2022-09-09T03:27:31;17.30;99.90
56044;DHT22;41912;51.022;3.664;2022-09-09T03:29:57;17.30;99.90
56044;DHT22;41912;51.022;3.664;2022-09-09T03:32:23;17.30;99.90
56044;DHT22;41912;51.022;3.664;2022-09-09T03:34:51;17.40;99.90
56044;DHT22;41912;51.022;3.664;2022-09-09T03:37:17;17.30;99.90
56044;DHT22;41912;51.022;3.664;2022-09-09T03:39:43;17.30;99.90
56044;DHT22;41912;51.022;3.664;2022-09-09T03:42:11;17.30;99.90
56044;DHT22;41912;51.022;3.664;2022-09-09T03:44:39;17.30;99.90
56044;DHT22;41912;51.022;3.664;2022-09-09T03:47:05;17.30;99.90
56044;DHT22;41912;51.022;3.664;2022-09-09T03:49:31;17.40;99.90
56044;DHT22;41912;51.022;3.664;2022-09-09T03:51:57;17.30;99.90
56044;DHT22;41912;51.022;3.664;2022-09-09T03:54:25;17.30;99.90
56044;DHT22;41912;51.022;3.664;2022-09-09T03:56:50;17.30;99.90
56044;DHT22;41912;51.022;3.664;2022-09-09T03:59:16;17.40;99.90
56044;DHT22;41912;51.022;3.664;2022-09-09T04:01:42;17.30;99.90
56044;DHT22;41912;51.022;3.664;2022-09-09T04:04:08;17.30;99.90
56044;DHT22;41912;51.022;3.664;2022-09-09T04:06:34;17.30;99.90
56044;DHT22;41912;51.022;3.664;2022-09-09T04:09:00;17.40;99.90
56044;DHT22;41912;51.022;3.664;2022-09-09T04:11:28;17.30;99.90
56044;DHT22;41912;51.022;3.664;2022-09-09T04:13:53;17.40;99.90
56044;DHT22;41912;51.022;3.664;2022-09-09T04:16:19;17.40;99.90
56044;DHT22;41912;51.022;3.664;2022-09-09T04:18:45;17.40;99.90
56044;DHT22;41912;51.022;3.664;2022-09-09T04:21:11;17.40;99.90
56044;DHT22;41912;51.022;3.664;2022-09-09T04:23:38;17.30;99.90
56044;DHT22;41912;51.022;3.664;2022-09-09T04:26:04;17.30;99.90
56044;DHT22;41912;51.022;3.664;2022-09-09T04:28:32;17.30;99.90
56044;DHT22;41912;51.022;3.664;2022-09-09T04:31:19;17.40;99.90
56044;DHT22;41912;51.022;3.664;2022-09-09T04:33:46;17.40;99.90
56044;DHT22;41912;51.022;3.664;2022-09-09T04:36:13;17.40;99.90
56044;DHT22;41912;51.022;3.664;2022-09-09T04:38:39;17.40;99.90
56044;DHT22;41912;51.022;3.664;2022-09-09T04:41:05;17.40;99.90
56044;DHT22;41912;51.022;3.664;2022-09-09T04:43:31;17.40;99.90
56044;DHT22;41912;51.022;3.664;2022-09-09T04:45:57;17.40;99.90
56044;DHT22;41912;51.022;3.664;2022-09-09T04:48:24;17.40;99.90
56044;DHT22;41912;51.022;3.664;2022-09-09T04:51:04;17.40;99.90
56044;DHT22;41912;51.022;3.664;2022-09-09T04:53:30;17.50;99.90
56044;DHT22;41912;51.022;3.664;2022-09-09T04:58:29;17.40;99.90
56044;DHT22;41912;51.022;3.664;2022-09-09T05:01:01;17.40;99.90
56044;DHT22;41912;51.022;3.664;2022-09-09T05:03:27;17.40;99.90
56044;DHT22;41912;51.022;3.664;2022-09-09T05:05:54;17.40;99.90
56044;DHT22;41912;51.022;3.664;2022-09-09T05:08:19;17.40;99.90
56044;DHT22;41912;51.022;3.664;2022-09-09T05:10:46;17.30;99.90
56044;DHT22;41912;51.022;3.664;2022-09-09T05:13:11;17.30;99.90
56044;DHT22;41912;51.022;3.664;2022-09-09T05:15:37;17.30;99.90
56044;DHT22;41912;51.022;3.664;2022-09-09T05:18:02;17.30;99.90
56044;DHT22;41912;51.022;3.664;2022-09-09T05:20:29;17.30;99.90
56044;DHT22;41912;51.022;3.664;2022-09-09T05:22:55;17.30;99.90
56044;DHT22;41912;51.022;3.664;2022-09-09T05:25:22;17.40;99.90
56044;DHT22;41912;51.022;3.664;2022-09-09T05:27:48;17.30;99.90
56044;DHT22;41912;51.022;3.664;2022-09-09T05:30:14;17.30;99.90
56044;DHT22;41912;51.022;3.664;2022-09-09T05:32:40;17.30;99.90
56044;DHT22;41912;51.022;3.664;2022-09-09T05:35:06;17.30;99.90
56044;DHT22;41912;51.022;3.664;2022-09-09T05:37:32;17.30;99.90
56044;DHT22;41912;51.022;3.664;2022-09-09T05:39:57;17.40;99.90
56044;DHT22;41912;51.022;3.664;2022-09-09T05:42:23;17.30;99.90
56044;DHT22;41912;51.022;3.664;2022-09-09T05:44:49;17.30;99.90
56044;DHT22;41912;51.022;3.664;2022-09-09T05:47:16;17.30;99.90
56044;DHT22;41912;51.022;3.664;2022-09-09T05:49:42;17.40;99.90
56044;DHT22;41912;51.022;3.664;2022-09-09T05:52:08;17.40;99.90
56044;DHT22;41912;51.022;3.664;2022-09-09T05:54:35;17.40;99.90
56044;DHT22;41912;51.022;3.664;2022-09-09T05:57:02;17.40;99.90
56044;DHT22;41912;51.022;3.664;2022-09-09T05:59:27;17.40;99.90
56044;DHT22;41912;51.022;3.664;2022-09-09T06:01:53;17.30;99.90
56044;DHT22;41912;51.022;3.664;2022-09-09T06:04:19;17.30;99.90
56044;DHT22;41912;51.022;3.664;2022-09-09T06:06:47;17.30;99.90
56044;DHT22;41912;51.022;3.664;2022-09-09T06:09:14;17.30;99.90
56044;DHT22;41912;51.022;3.664;2022-09-09T06:11:41;17.30;99.90
56044;DHT22;41912;51.022;3.664;2022-09-09T06:14:07;17.30;99.90
56044;DHT22;41912;51.022;3.664;2022-09-09T06:16:33;17.30;99.90
56044;DHT22;41912;51.022;3.664;2022-09-09T06:19:00;17.30;99.90
56044;DHT22;41912;51.022;3.664;2022-09-09T06:21:36;17.30;99.90
56044;DHT22;41912;51.022;3.664;2022-09-09T06:24:05;17.30;99.90
56044;DHT22;41912;51.022;3.664;2022-09-09T06:26:37;17.30;99.90
56044;DHT22;41912;51.022;3.664;2022-09-09T06:29:04;17.20;99.90
56044;DHT22;41912;51.022;3.664;2022-09-09T06:31:32;17.20;99.90
56044;DHT22;41912;51.022;3.664;2022-09-09T06:34:00;17.30;99.90
56044;DHT22;41912;51.022;3.664;2022-09-09T06:36:31;17.30;99.90
56044;DHT22;41912;51.022;3.664;2022-09-09T06:38:57;17.30;99.90
56044;DHT22;41912;51.022;3.664;2022-09-09T06:41:25;17.30;99.90
56044;DHT22;41912;51.022;3.664;2022-09-09T06:43:54;17.40;99.90
56044;DHT22;41912;51.022;3.664;2022-09-09T06:46:30;17.40;99.90
56044;DHT22;41912;51.022;3.664;2022-09-09T06:48:58;17.50;99.90
56044;DHT22;41912;51.022;3.664;2022-09-09T06:51:30;17.50;99.90
56044;DHT22;41912;51.022;3.664;2022-09-09T06:53:58;17.50;99.90
56044;DHT22;41912;51.022;3.664;2022-09-09T06:56:29;17.50;99.90
56044;DHT22;41912;51.022;3.664;2022-09-09T06:58:57;17.50;99.90
56044;DHT22;41912;51.022;3.664;2022-09-09T07:01:25;17.60;99.90
56044;DHT22;41912;51.022;3.664;2022-09-09T07:03:54;17.60;99.90
56044;DHT22;41912;51.022;3.664;2022-09-09T07:06:24;17.60;99.90
56044;DHT22;41912;51.022;3.664;2022-09-09T07:09:01;17.70;99.90
56044;DHT22;41912;51.022;3.664;2022-09-09T07:11:33;17.70;99.90
56044;DHT22;41912;51.022;3.664;2022-09-09T07:14:00;17.60;99.90
56044;DHT22;41912;51.022;3.664;2022-09-09T07:16:26;17.70;99.90
56044;DHT22;41912;51.022;3.664;2022-09-09T07:18:53;17.70;99.90
56044;DHT22;41912;51.022;3.664;2022-09-09T07:21:24;17.70;99.90
56044;DHT22;41912;51.022;3.664;2022-09-09T07:23:50;17.70;99.90
56044;DHT22;41912;51.022;3.664;2022-09-09T07:26:18;17.70;99.90
56044;DHT22;41912;51.022;3.664;2022-09-09T07:28:47;17.80;99.90
56044;DHT22;41912;51.022;3.664;2022-09-09T07:31:21;17.80;99.90
56044;DHT22;41912;51.022;3.664;2022-09-09T07:33:48;17.90;99.90
56044;DHT22;41912;51.022;3.664;2022-09-09T07:36:18;17.80;99.90
56044;DHT22;41912;51.022;3.664;2022-09-09T07:38:46;17.80;99.90
56044;DHT22;41912;51.022;3.664;2022-09-09T07:41:15;17.80;99.90
56044;DHT22;41912;51.022;3.664;2022-09-09T07:43:42;17.80;99.90
56044;DHT22;41912;51.022;3.664;2022-09-09T07:46:10;17.80;99.90
56044;DHT22;41912;51.022;3.664;2022-09-09T07:48:36;17.80;99.90
56044;DHT22;41912;51.022;3.664;2022-09-09T07:51:11;17.90;99.90
56044;DHT22;41912;51.022;3.664;2022-09-09T07:53:38;17.90;99.90
56044;DHT22;41912;51.022;3.664;2022-09-09T07:56:07;17.90;99.90
56044;DHT22;41912;51.022;3.664;2022-09-09T07:58:35;17.90;99.90
56044;DHT22;41912;51.022;3.664;2022-09-09T08:01:07;17.90;99.90
56044;DHT22;41912;51.022;3.664;2022-09-09T08:03:32;17.90;99.90
56044;DHT22;41912;51.022;3.664;2022-09-09T08:06:03;17.90;99.90
56044;DHT22;41912;51.022;3.664;2022-09-09T08:08:30;17.80;99.90
56044;DHT22;41912;51.022;3.664;2022-09-09T08:11:08;17.80;99.90
56044;DHT22;41912;51.022;3.664;2022-09-09T08:13:35;17.70;99.90
56044;DHT22;41912;51.022;3.664;2022-09-09T08:16:10;17.70;99.90
56044;DHT22;41912;51.022;3.664;2022-09-09T08:18:36;17.80;99.90
56044;DHT22;41912;51.022;3.664;2022-09-09T08:21:10;17.70;99.90
56044;DHT22;41912;51.022;3.664;2022-09-09T08:23:40;17.70;99.90
56044;DHT22;41912;51.022;3.664;2022-09-09T08:26:12;17.70;99.90
56044;DHT22;41912;51.022;3.664;2022-09-09T08:28:39;17.70;99.90
56044;DHT22;41912;51.022;3.664;2022-09-09T08:31:14;17.70;99.90
56044;DHT22;41912;51.022;3.664;2022-09-09T08:33:40;17.70;99.90
56044;DHT22;41912;51.022;3.664;2022-09-09T08:36:08;17.60;99.90
56044;DHT22;41912;51.022;3.664;2022-09-09T08:38:34;17.60;99.90
56044;DHT22;41912;51.022;3.664;2022-09-09T08:43:43;17.60;99.90
56044;DHT22;41912;51.022;3.664;2022-09-09T08:51:20;17.70;99.90
56044;DHT22;41912;51.022;3.664;2022-09-09T08:53:48;17.70;99.90
56044;DHT22;41912;51.022;3.664;2022-09-09T08:56:18;17.80;99.90
56044;DHT22;41912;51.022;3.664;2022-09-09T08:58:48;17.80;99.90
56044;DHT22;41912;51.022;3.664;2022-09-09T09:01:43;17.80;99.90
56044;DHT22;41912;51.022;3.664;2022-09-09T09:04:40;17.80;99.90
56044;DHT22;41912;51.022;3.664;2022-09-09T09:12:46;17.70;99.90
56044;DHT22;41912;51.022;3.664;2022-09-09T09:15:25;17.80;99.90
56044;DHT22;41912;51.022;3.664;2022-09-09T09:17:51;17.80;99.90
56044;DHT22;41912;51.022;3.664;2022-09-09T09:20:28;17.80;99.90
56044;DHT22;41912;51.022;3.664;2022-09-09T09:22:59;17.90;99.90
56044;DHT22;41912;51.022;3.664;2022-09-09T09:25:31;18.00;99.90
56044;DHT22;41912;51.022;3.664;2022-09-09T09:28:00;18.00;99.90
56044;DHT22;41912;51.022;3.664;2022-09-09T09:31:01;18.10;99.90
56044;DHT22;41912;51.022;3.664;2022-09-09T09:36:00;18.10;99.90
56044;DHT22;41912;51.022;3.664;2022-09-09T09:38:27;18.10;99.90
56044;DHT22;41912;51.022;3.664;2022-09-09T09:40:58;18.20;99.90
56044;DHT22;41912;51.022;3.664;2022-09-09T09:43:27;18.20;99.90
56044;DHT22;41912;51.022;3.664;2022-09-09T09:45:56;18.30;99.90
56044;DHT22;41912;51.022;3.664;2022-09-09T09:48:28;18.30;99.90
56044;DHT22;41912;51.022;3.664;2022-09-09T09:50:59;18.30;99.90
56044;DHT22;41912;51.022;3.664;2022-09-09T09:53:35;18.40;99.90
56044;DHT22;41912;51.022;3.664;2022-09-09T10:01:42;18.30;99.90
56044;DHT22;41912;51.022;3.664;2022-09-09T10:04:21;18.30;99.90
56044;DHT22;41912;51.022;3.664;2022-09-09T10:06:49;18.30;99.90
56044;DHT22;41912;51.022;3.664;2022-09-09T10:09:31;18.40;99.90
56044;DHT22;41912;51.022;3.664;2022-09-09T10:12:59;18.40;99.90
56044;DHT22;41912;51.022;3.664;2022-09-09T10:15:38;18.50;99.90
56044;DHT22;41912;51.022;3.664;2022-09-09T10:18:22;18.50;99.90
56044;DHT22;41912;51.022;3.664;2022-09-09T10:26:46;18.60;99.90
56044;DHT22;41912;51.022;3.664;2022-09-09T10:29:37;18.60;99.90
56044;DHT22;41912;51.022;3.664;2022-09-09T10:35:53;18.60;99.90
56044;DHT22;41912;51.022;3.664;2022-09-09T10:57:49;18.90;99.90
56044;DHT22;41912;51.022;3.664;2022-09-09T11:03:04;18.90;99.90
56044;DHT22;41912;51.022;3.664;2022-09-09T11:05:47;19.00;99.90
56044;DHT22;41912;51.022;3.664;2022-09-09T11:08:19;19.00;99.90
56044;DHT22;41912;51.022;3.664;2022-09-09T11:10:46;19.10;99.90
56044;DHT22;41912;51.022;3.664;2022-09-09T11:15:55;19.20;99.90
56044;DHT22;41912;51.022;3.664;2022-09-09T11:18:23;19.20;99.60
56044;DHT22;41912;51.022;3.664;2022-09-09T11:20:56;19.30;99.70
56044;DHT22;41912;51.022;3.664;2022-09-09T11:26:44;19.40;99.90
56044;DHT22;41912;51.022;3.664;2022-09-09T11:35:30;19.60;99.90
56044;DHT22;41912;51.022;3.664;2022-09-09T11:38:26;19.60;99.20
56044;DHT22;41912;51.022;3.664;2022-09-09T11:40:58;19.70;99.20
56044;DHT22;41912;51.022;3.664;2022-09-09T11:43:30;19.80;99.30
56044;DHT22;41912;51.022;3.664;2022-09-09T11:45:58;19.80;99.20
56044;DHT22;41912;51.022;3.664;2022-09-09T11:48:38;19.80;98.80
56044;DHT22;41912;51.022;3.664;2022-09-09T11:51:10;19.80;98.80
56044;DHT22;41912;51.022;3.664;2022-09-09T11:53:50;19.80;98.80
56044;DHT22;41912;51.022;3.664;2022-09-09T11:56:31;19.80;98.60
56044;DHT22;41912;51.022;3.664;2022-09-09T11:59:05;19.80;98.40
56044;DHT22;41912;51.022;3.664;2022-09-09T12:01:42;19.80;98.50
56044;DHT22;41912;51.022;3.664;2022-09-09T12:04:26;19.90;98.80
56044;DHT22;41912;51.022;3.664;2022-09-09T12:19:40;20.10;98.50
56044;DHT22;41912;51.022;3.664;2022-09-09T12:22:17;20.10;98.60
56044;DHT22;41912;51.022;3.664;2022-09-09T12:25:03;20.10;99.00
56044;DHT22;41912;51.022;3.664;2022-09-09T12:28:04;20.20;99.00
56044;DHT22;41912;51.022;3.664;2022-09-09T12:33:20;20.30;98.90
56044;DHT22;41912;51.022;3.664;2022-09-09T12:35:53;20.40;98.40
56044;DHT22;41912;51.022;3.664;2022-09-09T12:38:37;20.40;98.10
56044;DHT22;41912;51.022;3.664;2022-09-09T12:41:04;20.50;98.20
56044;DHT22;41912;51.022;3.664;2022-09-09T12:43:30;20.50;98.20
56044;DHT22;41912;51.022;3.664;2022-09-09T12:46:07;20.50;98.00
56044;DHT22;41912;51.022;3.664;2022-09-09T12:48:39;20.50;97.80
56044;DHT22;41912;51.022;3.664;2022-09-09T12:51:27;20.50;98.10
56044;DHT22;41912;51.022;3.664;2022-09-09T12:53:54;20.50;97.60
56044;DHT22;41912;51.022;3.664;2022-09-09T12:56:26;20.50;97.70
56044;DHT22;41912;51.022;3.664;2022-09-09T12:58:54;20.40;97.90
56044;DHT22;41912;51.022;3.664;2022-09-09T13:01:31;20.40;98.20
56044;DHT22;41912;51.022;3.664;2022-09-09T13:03:57;20.40;98.40
56044;DHT22;41912;51.022;3.664;2022-09-09T13:06:34;20.40;98.90
56044;DHT22;41912;51.022;3.664;2022-09-09T13:09:01;20.40;99.20
56044;DHT22;41912;51.022;3.664;2022-09-09T13:11:37;20.40;99.50
56044;DHT22;41912;51.022;3.664;2022-09-09T13:14:05;20.50;99.80
56044;DHT22;41912;51.022;3.664;2022-09-09T13:16:35;20.60;99.90
56044;DHT22;41912;51.022;3.664;2022-09-09T13:19:14;20.60;99.80
56044;DHT22;41912;51.022;3.664;2022-09-09T13:21:41;20.80;98.90
56044;DHT22;41912;51.022;3.664;2022-09-09T13:24:30;20.80;98.70
56044;DHT22;41912;51.022;3.664;2022-09-09T13:26:58;20.90;98.90
56044;DHT22;41912;51.022;3.664;2022-09-09T13:29:25;21.00;98.70
56044;DHT22;41912;51.022;3.664;2022-09-09T13:31:52;21.10;98.60
56044;DHT22;41912;51.022;3.664;2022-09-09T13:34:33;21.10;98.00
56044;DHT22;41912;51.022;3.664;2022-09-09T13:37:01;21.10;97.50
56044;DHT22;41912;51.022;3.664;2022-09-09T13:39:35;21.20;97.60
56044;DHT22;41912;51.022;3.664;2022-09-09T13:42:02;21.30;97.60
56044;DHT22;41912;51.022;3.664;2022-09-09T13:44:37;21.20;97.00
56044;DHT22;41912;51.022;3.664;2022-09-09T13:47:17;21.20;96.10
56044;DHT22;41912;51.022;3.664;2022-09-09T13:49:44;21.10;95.90
56044;DHT22;41912;51.022;3.664;2022-09-09T13:52:18;21.00;96.70
56044;DHT22;41912;51.022;3.664;2022-09-09T13:54:51;21.00;96.50
56044;DHT22;41912;51.022;3.664;2022-09-09T13:57:19;21.00;96.50
56044;DHT22;41912;51.022;3.664;2022-09-09T13:59:46;21.00;96.60
56044;DHT22;41912;51.022;3.664;2022-09-09T14:02:13;21.00;96.60
56044;DHT22;41912;51.022;3.664;2022-09-09T14:04:39;21.00;96.60
56044;DHT22;41912;51.022;3.664;2022-09-09T14:07:12;21.00;96.60
56044;DHT22;41912;51.022;3.664;2022-09-09T14:09:39;21.10;96.90
56044;DHT22;41912;51.022;3.664;2022-09-09T14:12:08;21.00;96.90
56044;DHT22;41912;51.022;3.664;2022-09-09T14:14:34;21.00;96.90
56044;DHT22;41912;51.022;3.664;2022-09-09T14:17:00;21.10;97.00
56044;DHT22;41912;51.022;3.664;2022-09-09T14:19:25;21.10;97.10
56044;DHT22;41912;51.022;3.664;2022-09-09T14:21:51;21.10;96.80
56044;DHT22;41912;51.022;3.664;2022-09-09T14:24:17;21.10;96.60
56044;DHT22;41912;51.022;3.664;2022-09-09T14:26:42;21.20;96.70
56044;DHT22;41912;51.022;3.664;2022-09-09T14:29:08;21.40;96.40
56044;DHT22;41912;51.022;3.664;2022-09-09T14:31:34;21.50;95.60
56044;DHT22;41912;51.022;3.664;2022-09-09T14:33:59;21.50;95.30
56044;DHT22;41912;51.022;3.664;2022-09-09T14:36:25;21.50;95.30
56044;DHT22;41912;51.022;3.664;2022-09-09T14:38:51;21.60;94.90
56044;DHT22;41912;51.022;3.664;2022-09-09T14:41:19;21.70;95.10
56044;DHT22;41912;51.022;3.664;2022-09-09T14:43:46;21.90;94.90
56044;DHT22;41912;51.022;3.664;2022-09-09T14:46:14;22.10;94.90
56044;DHT22;41912;51.022;3.664;2022-09-09T14:48:40;22.10;94.10
56044;DHT22;41912;51.022;3.664;2022-09-09T14:51:13;22.10;94.30
56044;DHT22;41912;51.022;3.664;2022-09-09T14:53:40;22.10;94.80
56044;DHT22;41912;51.022;3.664;2022-09-09T14:56:09;22.20;94.40
56044;DHT22;41912;51.022;3.664;2022-09-09T14:58:36;22.20;94.90
56044;DHT22;41912;51.022;3.664;2022-09-09T15:01:08;22.20;94.10
56044;DHT22;41912;51.022;3.664;2022-09-09T15:03:36;22.10;93.80
56044;DHT22;41912;51.022;3.664;2022-09-09T15:06:12;22.10;93.60
56044;DHT22;41912;51.022;3.664;2022-09-09T15:08:41;22.10;93.30
56044;DHT22;41912;51.022;3.664;2022-09-09T15:11:07;22.10;93.30
56044;DHT22;41912;51.022;3.664;2022-09-09T15:13:36;22.10;93.00
56044;DHT22;41912;51.022;3.664;2022-09-09T15:16:06;22.00;93.10
56044;DHT22;41912;51.022;3.664;2022-09-09T15:18:32;22.00;92.90
56044;DHT22;41912;51.022;3.664;2022-09-09T15:20:59;22.10;92.50
56044;DHT22;41912;51.022;3.664;2022-09-09T15:26:48;22.10;93.00
56044;DHT22;41912;51.022;3.664;2022-09-09T15:29:14;22.00;91.90
56044;DHT22;41912;51.022;3.664;2022-09-09T15:31:41;21.90;92.10
56044;DHT22;41912;51.022;3.664;2022-09-09T15:34:07;21.80;92.40
56044;DHT22;41912;51.022;3.664;2022-09-09T15:36:37;21.80;92.50
56044;DHT22;41912;51.022;3.664;2022-09-09T15:39:06;21.70;92.70
56044;DHT22;41912;51.022;3.664;2022-09-09T15:41:32;21.70;93.20
56044;DHT22;41912;51.022;3.664;2022-09-09T15:43:58;21.60;93.50
56044;DHT22;41912;51.022;3.664;2022-09-09T15:46:33;21.60;93.20
56044;DHT22;41912;51.022;3.664;2022-09-09T15:49:19;21.50;93.20
56044;DHT22;41912;51.022;3.664;2022-09-09T15:51:54;21.60;93.10
56044;DHT22;41912;51.022;3.664;2022-09-09T15:54:21;21.60;93.00
56044;DHT22;41912;51.022;3.664;2022-09-09T15:56:52;21.60;93.00
56044;DHT22;41912;51.022;3.664;2022-09-09T15:59:20;21.60;93.30
56044;DHT22;41912;51.022;3.664;2022-09-09T16:01:45;21.60;93.40
56044;DHT22;41912;51.022;3.664;2022-09-09T16:04:11;21.60;93.30
56044;DHT22;41912;51.022;3.664;2022-09-09T16:06:37;21.70;93.50
56044;DHT22;41912;51.022;3.664;2022-09-09T16:09:05;21.70;93.80
56044;DHT22;41912;51.022;3.664;2022-09-09T16:11:34;21.70;92.90
56044;DHT22;41912;51.022;3.664;2022-09-09T16:14:00;21.70;92.50
56044;DHT22;41912;51.022;3.664;2022-09-09T16:16:28;21.70;92.30
56044;DHT22;41912;51.022;3.664;2022-09-09T16:18:56;21.70;93.00
56044;DHT22;41912;51.022;3.664;2022-09-09T16:21:27;21.70;92.80
56044;DHT22;41912;51.022;3.664;2022-09-09T16:23:58;21.70;92.60
56044;DHT22;41912;51.022;3.664;2022-09-09T16:26:29;21.70;92.50
56044;DHT22;41912;51.022;3.664;2022-09-09T16:28:55;21.60;92.50
56044;DHT22;41912;51.022;3.664;2022-09-09T16:31:23;21.50;93.00
56044;DHT22;41912;51.022;3.664;2022-09-09T16:33:49;21.50;93.60
56044;DHT22;41912;51.022;3.664;2022-09-09T16:36:21;21.50;93.70
56044;DHT22;41912;51.022;3.664;2022-09-09T16:38:47;21.60;93.80
56044;DHT22;41912;51.022;3.664;2022-09-09T16:41:14;21.60;93.80
56044;DHT22;41912;51.022;3.664;2022-09-09T16:43:40;21.60;93.90
56044;DHT22;41912;51.022;3.664;2022-09-09T16:46:16;21.60;93.60
56044;DHT22;41912;51.022;3.664;2022-09-09T16:48:44;21.60;93.60
56044;DHT22;41912;51.022;3.664;2022-09-09T16:51:46;21.50;94.00
56044;DHT22;41912;51.022;3.664;2022-09-09T16:54:15;21.50;94.10
56044;DHT22;41912;51.022;3.664;2022-09-09T16:56:44;21.50;94.30
56044;DHT22;41912;51.022;3.664;2022-09-09T16:59:12;21.40;94.40
56044;DHT22;41912;51.022;3.664;2022-09-09T17:01:39;21.40;94.80
56044;DHT22;41912;51.022;3.664;2022-09-09T17:04:11;21.20;95.50
56044;DHT22;41912;51.022;3.664;2022-09-09T17:06:37;21.30;96.10
56044;DHT22;41912;51.022;3.664;2022-09-09T17:09:09;21.20;96.30
56044;DHT22;41912;51.022;3.664;2022-09-09T17:11:36;21.10;96.60
56044;DHT22;41912;51.022;3.664;2022-09-09T17:14:03;21.10;96.70
56044;DHT22;41912;51.022;3.664;2022-09-09T17:16:31;21.00;97.00
56044;DHT22;41912;51.022;3.664;2022-09-09T17:18:57;21.00;97.30
56044;DHT22;41912;51.022;3.664;2022-09-09T17:21:25;21.00;97.30
56044;DHT22;41912;51.022;3.664;2022-09-09T17:23:51;21.00;97.30
56044;DHT22;41912;51.022;3.664;2022-09-09T17:26:21;21.00;97.50
56044;DHT22;41912;51.022;3.664;2022-09-09T17:28:47;21.00;97.50
56044;DHT22;41912;51.022;3.664;2022-09-09T17:31:15;20.90;97.40
56044;DHT22;41912;51.022;3.664;2022-09-09T17:33:47;20.90;97.30
56044;DHT22;41912;51.022;3.664;2022-09-09T17:36:33;20.90;97.40
56044;DHT22;41912;51.022;3.664;2022-09-09T17:38:59;20.90;97.30
56044;DHT22;41912;51.022;3.664;2022-09-09T17:41:31;20.90;97.30
56044;DHT22;41912;51.022;3.664;2022-09-09T17:43:58;20.80;97.60
56044;DHT22;41912;51.022;3.664;2022-09-09T17:46:35;20.80;97.80
56044;DHT22;41912;51.022;3.664;2022-09-09T17:49:07;20.80;97.70
56044;DHT22;41912;51.022;3.664;2022-09-09T17:51:34;20.70;97.50
56044;DHT22;41912;51.022;3.664;2022-09-09T17:54:06;20.70;97.10
56044;DHT22;41912;51.022;3.664;2022-09-09T17:56:36;20.60;97.00
56044;DHT22;41912;51.022;3.664;2022-09-09T17:59:04;20.60;97.10
56044;DHT22;41912;51.022;3.664;2022-09-09T18:01:33;20.50;96.90
56044;DHT22;41912;51.022;3.664;2022-09-09T18:04:00;20.50;96.70
56044;DHT22;41912;51.022;3.664;2022-09-09T18:06:28;20.40;96.70
56044;DHT22;41912;51.022;3.664;2022-09-09T18:09:07;20.40;96.80
56044;DHT22;41912;51.022;3.664;2022-09-09T18:11:36;20.40;96.40
56044;DHT22;41912;51.022;3.664;2022-09-09T18:14:04;20.40;96.60
56044;DHT22;41912;51.022;3.664;2022-09-09T18:16:32;20.30;96.50
56044;DHT22;41912;51.022;3.664;2022-09-09T18:19:02;20.30;96.50
56044;DHT22;41912;51.022;3.664;2022-09-09T18:21:29;20.30;96.50